createdAt,value
2023-03-17T00:02:12.008Z,8.70
2023-03-17T00:04:40.331Z,12.02
2023-03-17T00:07:09.171Z,9.23
2023-03-17T00:09:37.592Z,8.25
2023-03-17T00:12:12.067Z,9.77
2023-03-17T00:14:40.882Z,11.80
2023-03-17T00:17:14.358Z,9.18
2023-03-17T00:19:44.751Z,12.88
2023-03-17T00:22:18.838Z,12.77
2023-03-17T00:24:46.794Z,9.27
2023-03-17T00:27:17.913Z,8.65
2023-03-17T00:29:47.175Z,10.23
2023-03-17T00:32:18.357Z,9.63
2023-03-17T00:34:47.448Z,8.82
2023-03-17T00:37:15.384Z,8.88
2023-03-17T00:39:44.177Z,9.93
2023-03-17T00:42:13.287Z,13.43
2023-03-17T00:44:42.749Z,10.73
2023-03-17T00:47:13.341Z,8.77
2023-03-17T00:49:41.358Z,8.85
2023-03-17T00:52:10.306Z,9.60
2023-03-17T00:54:40.061Z,8.93
2023-03-17T00:57:11.312Z,13.70
2023-03-17T00:59:43.378Z,10.27
2023-03-17T01:02:15.507Z,9.02
2023-03-17T01:04:49.943Z,8.97
2023-03-17T01:07:22.934Z,8.80
2023-03-17T01:09:51.280Z,9.80
2023-03-17T01:12:20.357Z,10.40
2023-03-17T01:14:49.820Z,9.30
2023-03-17T01:17:19.675Z,11.23
2023-03-17T01:19:48.650Z,11.73
2023-03-17T01:22:16.702Z,11.52
2023-03-17T01:24:47.971Z,9.20
2023-03-17T01:27:16.436Z,11.27
2023-03-17T01:29:44.868Z,8.13
2023-03-17T01:32:14.588Z,9.27
2023-03-17T01:34:42.842Z,9.30
2023-03-17T01:37:11.517Z,12.35
2023-03-17T01:39:40.091Z,8.43
2023-03-17T01:42:09.492Z,8.68
2023-03-17T01:44:57.508Z,8.43
2023-03-17T01:47:29.460Z,9.10
2023-03-17T01:50:00.511Z,9.30
2023-03-17T01:52:29.937Z,9.10
2023-03-17T01:55:12.478Z,10.13
2023-03-17T01:57:47.159Z,9.95
2023-03-17T02:00:20.369Z,6.22
2023-03-17T02:02:51.598Z,11.30
2023-03-17T02:05:25.409Z,8.93
2023-03-17T02:07:54.604Z,10.75
2023-03-17T02:10:25.161Z,10.10
2023-03-17T02:12:56.817Z,9.10
2023-03-17T02:15:26.099Z,9.40
2023-03-17T02:17:55.380Z,9.27
2023-03-17T02:21:15.562Z,8.15
2023-03-17T02:23:46.694Z,9.27
2023-03-17T02:26:14.796Z,9.75
2023-03-17T02:28:46.214Z,9.43
2023-03-17T02:31:14.560Z,9.55
2023-03-17T02:33:43.853Z,9.63
2023-03-17T02:36:11.855Z,9.77
2023-03-17T02:38:40.205Z,9.65
2023-03-17T02:41:10.070Z,13.15
2023-03-17T02:43:38.381Z,11.05
2023-03-17T02:46:09.570Z,8.45
2023-03-17T02:48:39.122Z,9.63
2023-03-17T02:51:07.806Z,10.45
2023-03-17T02:53:36.706Z,8.82
2023-03-17T02:56:05.565Z,10.10
2023-03-17T02:58:37.673Z,9.50
2023-03-17T03:01:06.230Z,11.87
2023-03-17T03:03:34.486Z,9.27
2023-03-17T03:06:03.242Z,9.35
2023-03-17T03:08:31.693Z,8.35
2023-03-17T03:11:02.512Z,9.38
2023-03-17T03:13:31.230Z,11.02
2023-03-17T03:16:01.129Z,9.77
2023-03-17T03:18:29.390Z,9.57
2023-03-17T03:20:57.680Z,11.30
2023-03-17T03:23:25.495Z,11.13
2023-03-17T03:25:53.912Z,11.45
2023-03-17T03:28:23.213Z,10.68
2023-03-17T03:30:54.119Z,9.40
2023-03-17T03:33:39.025Z,10.63
2023-03-17T03:36:08.141Z,9.98
2023-03-17T03:38:36.856Z,11.60
2023-03-17T03:41:04.990Z,8.57
2023-03-17T03:43:33.187Z,8.25
2023-03-17T03:46:02.653Z,14.38
2023-03-17T03:48:31.244Z,9.95
2023-03-17T03:51:05.004Z,10.15
2023-03-17T03:53:33.076Z,8.43
2023-03-17T03:56:02.041Z,9.68
2023-03-17T03:58:31.403Z,12.63
2023-03-17T04:00:59.508Z,11.43
2023-03-17T04:03:28.044Z,8.98
2023-03-17T04:05:56.003Z,10.68
2023-03-17T04:08:25.850Z,9.13
2023-03-17T04:10:54.073Z,10.30
2023-03-17T04:13:22.287Z,11.77
2023-03-17T04:15:50.300Z,10.57
2023-03-17T04:18:19.698Z,10.93
2023-03-17T04:20:50.655Z,11.48
2023-03-17T04:23:19.065Z,12.40
2023-03-17T04:25:51.628Z,10.30
2023-03-17T04:28:20.002Z,12.73
2023-03-17T04:30:48.725Z,11.57
2023-03-17T04:33:17.662Z,12.30
2023-03-17T04:35:47.592Z,9.10
2023-03-17T04:38:15.749Z,10.68
2023-03-17T04:40:46.272Z,10.00
2023-03-17T04:43:17.092Z,12.30
2023-03-17T04:45:45.137Z,12.25
2023-03-17T04:48:13.455Z,12.05
2023-03-17T04:50:42.404Z,8.80
2023-03-17T04:53:10.812Z,9.85
2023-03-17T04:55:39.755Z,12.57
2023-03-17T04:58:11.670Z,9.38
2023-03-17T05:00:44.264Z,9.05
2023-03-17T05:03:26.004Z,8.80
2023-03-17T05:05:58.772Z,9.35
2023-03-17T05:08:30.135Z,12.30
2023-03-17T05:10:59.380Z,10.77
2023-03-17T05:13:28.600Z,10.82
2023-03-17T05:16:02.972Z,8.60
2023-03-17T05:18:31.534Z,12.07
2023-03-17T05:20:59.525Z,8.48
2023-03-17T05:23:30.148Z,9.73
2023-03-17T05:26:00.251Z,9.40
2023-03-17T05:28:29.322Z,10.90
2023-03-17T05:30:59.296Z,9.50
2023-03-17T05:33:27.884Z,10.30
2023-03-17T05:35:56.211Z,8.73
2023-03-17T05:38:26.124Z,10.38
2023-03-17T05:40:54.758Z,10.02
2023-03-17T05:43:23.897Z,9.00
2023-03-17T05:45:52.657Z,8.48
2023-03-17T05:48:22.818Z,9.57
2023-03-17T05:50:52.331Z,10.98
2023-03-17T05:53:21.178Z,10.20
2023-03-17T05:55:49.372Z,10.43
2023-03-17T05:58:18.293Z,13.60
2023-03-17T06:00:47.645Z,9.65
2023-03-17T06:03:15.669Z,9.50
2023-03-17T06:05:45.866Z,9.25
2023-03-17T06:08:17.291Z,13.18
2023-03-17T06:10:46.449Z,10.68
2023-03-17T06:13:14.480Z,13.93
2023-03-17T06:15:44.381Z,15.35
2023-03-17T06:18:12.646Z,14.48
2023-03-17T06:20:41.490Z,15.82
2023-03-17T06:23:11.758Z,18.30
2023-03-17T06:25:39.836Z,23.42
2023-03-17T06:28:07.913Z,20.05
2023-03-17T06:30:40.870Z,14.70
2023-03-17T06:33:10.338Z,18.05
2023-03-17T06:35:39.406Z,11.30
2023-03-17T06:38:07.755Z,11.60
2023-03-17T06:40:40.859Z,14.80
2023-03-17T06:43:10.546Z,11.68
2023-03-17T06:45:38.788Z,11.45
2023-03-17T06:48:09.598Z,14.65
2023-03-17T06:50:38.292Z,13.60
2023-03-17T06:53:08.580Z,14.60
2023-03-17T06:58:25.111Z,11.77
2023-03-17T07:00:57.070Z,12.60
2023-03-17T07:03:26.604Z,11.50
2023-03-17T07:05:59.334Z,12.80
2023-03-17T07:08:35.683Z,12.32
2023-03-17T07:11:11.539Z,13.07
2023-03-17T07:13:42.079Z,12.27
2023-03-17T07:16:16.960Z,12.75
2023-03-17T07:18:48.545Z,10.80
2023-03-17T07:21:23.644Z,9.43
2023-03-17T07:23:57.975Z,9.07
2023-03-17T07:26:28.285Z,10.57
2023-03-17T07:28:56.468Z,6.68
2023-03-17T07:31:25.623Z,8.82
2023-03-17T07:33:57.274Z,8.05
2023-03-17T07:36:28.018Z,13.30
2023-03-17T07:38:59.085Z,8.93
2023-03-17T07:41:29.142Z,7.43
2023-03-17T07:43:58.412Z,8.38
2023-03-17T07:46:29.136Z,10.38
2023-03-17T07:49:05.886Z,7.75
2023-03-17T07:51:35.237Z,10.48
2023-03-17T07:54:06.797Z,8.77
2023-03-17T07:56:37.307Z,8.13
2023-03-17T07:59:06.538Z,11.20
2023-03-17T08:01:36.050Z,9.02
2023-03-17T08:04:07.513Z,8.50
2023-03-17T08:06:35.834Z,7.82
2023-03-17T08:09:06.442Z,11.05
2023-03-17T08:11:34.337Z,8.23
2023-03-17T08:14:05.294Z,9.95
2023-03-17T08:16:34.390Z,7.82
2023-03-17T08:19:04.183Z,8.23
2023-03-17T08:21:32.505Z,10.98
2023-03-17T08:24:02.649Z,7.93
2023-03-17T08:26:31.579Z,7.45
2023-03-17T08:29:01.302Z,9.65
2023-03-17T08:31:31.244Z,7.22
2023-03-17T08:33:59.492Z,11.18
2023-03-17T08:36:29.631Z,9.45
2023-03-17T08:38:57.665Z,8.68
2023-03-17T08:41:28.184Z,8.35
2023-03-17T08:43:57.005Z,7.70
2023-03-17T08:46:27.548Z,9.65
2023-03-17T08:49:00.888Z,9.10
2023-03-17T08:51:31.686Z,9.52
2023-03-17T08:54:00.644Z,6.97
2023-03-17T08:56:29.622Z,9.95
2023-03-17T08:58:58.491Z,10.13
2023-03-17T09:01:27.334Z,7.55
2023-03-17T09:03:56.677Z,8.35
2023-03-17T09:06:27.613Z,8.77
2023-03-17T09:08:56.090Z,7.43
2023-03-17T09:11:28.072Z,8.63
2023-03-17T09:13:56.593Z,9.38
2023-03-17T09:16:29.843Z,9.73
2023-03-17T09:18:57.770Z,7.53
2023-03-17T09:21:27.799Z,7.35
2023-03-17T09:23:56.802Z,8.95
2023-03-17T09:26:34.450Z,7.00
2023-03-17T09:29:03.813Z,9.02
2023-03-17T09:31:32.938Z,11.05
2023-03-17T09:34:01.414Z,9.60
2023-03-17T09:36:33.092Z,9.73
2023-03-17T09:39:01.860Z,7.85
2023-03-17T09:41:52.807Z,6.68
2023-03-17T09:44:36.032Z,8.30
2023-03-17T09:47:17.556Z,7.22
2023-03-17T09:49:48.579Z,7.45
2023-03-17T09:52:23.107Z,8.25
2023-03-17T09:54:51.378Z,8.18
2023-03-17T09:57:26.216Z,7.72
2023-03-17T10:00:01.611Z,6.90
2023-03-17T10:02:33.007Z,6.57
2023-03-17T10:05:08.553Z,8.15
2023-03-17T10:07:46.369Z,10.15
2023-03-17T10:10:20.239Z,6.68
2023-03-17T10:12:58.312Z,8.25
2023-03-17T10:15:33.048Z,9.20
2023-03-17T10:18:10.164Z,9.45
2023-03-17T10:20:55.461Z,9.35
2023-03-17T10:23:28.698Z,9.30
2023-03-17T10:25:58.817Z,9.68
2023-03-17T10:28:30.784Z,9.25
2023-03-17T10:31:07.734Z,7.35
2023-03-17T10:33:36.433Z,10.07
2023-03-17T10:36:09.723Z,7.38
2023-03-17T10:38:39.120Z,7.75
2023-03-17T10:41:10.668Z,10.05
2023-03-17T10:43:46.023Z,8.38
2023-03-17T10:46:21.602Z,7.13
2023-03-17T10:48:56.252Z,6.47
2023-03-17T10:51:32.079Z,6.80
2023-03-17T10:54:07.288Z,9.30
2023-03-17T10:56:37.459Z,6.75
2023-03-17T10:59:17.130Z,8.10
2023-03-17T11:01:54.140Z,8.63
2023-03-17T11:04:31.583Z,7.68
2023-03-17T11:07:07.766Z,7.25
2023-03-17T11:09:38.651Z,7.15
2023-03-17T11:12:08.845Z,7.43
2023-03-17T11:14:40.655Z,6.68
2023-03-17T11:17:19.001Z,7.32
2023-03-17T11:19:55.639Z,6.47
2023-03-17T11:22:31.514Z,9.05
2023-03-17T11:25:12.433Z,7.50
2023-03-17T11:27:49.925Z,6.70
2023-03-17T11:30:24.163Z,11.88
2023-03-17T11:33:04.330Z,8.75
2023-03-17T11:35:47.509Z,8.68
2023-03-17T11:38:27.166Z,8.40
2023-03-17T11:41:15.261Z,6.22
2023-03-17T11:43:59.198Z,8.55
2023-03-17T11:46:31.654Z,8.98
2023-03-17T11:49:09.230Z,9.02
2023-03-17T11:51:46.921Z,7.72
2023-03-17T11:54:24.014Z,8.00
2023-03-17T11:56:56.835Z,7.85
2023-03-17T11:59:37.497Z,7.72
2023-03-17T12:02:17.763Z,7.68
2023-03-17T12:04:53.587Z,9.13
2023-03-17T12:07:25.903Z,9.20
2023-03-17T12:10:06.470Z,7.88
2023-03-17T12:12:41.073Z,9.80
2023-03-17T12:15:18.101Z,9.20
2023-03-17T12:17:52.063Z,8.45
2023-03-17T12:20:26.155Z,8.20
2023-03-17T12:22:58.261Z,8.45
2023-03-17T12:25:34.937Z,8.10
2023-03-17T12:28:09.212Z,8.30
2023-03-17T12:30:47.529Z,7.95
2023-03-17T12:33:25.021Z,10.15
2023-03-17T12:35:53.717Z,9.25
2023-03-17T12:38:29.031Z,7.97
2023-03-17T12:41:19.021Z,7.97
2023-03-17T12:44:01.484Z,8.40
2023-03-17T12:46:44.697Z,10.48
2023-03-17T12:49:34.477Z,8.30
2023-03-17T12:52:14.556Z,8.77
2023-03-17T12:54:48.226Z,8.20
2023-03-17T12:57:20.143Z,9.27
2023-03-17T12:59:55.427Z,9.52
2023-03-17T13:02:36.555Z,9.00
2023-03-17T13:05:09.291Z,10.77
2023-03-17T13:07:42.986Z,8.90
2023-03-17T13:10:39.717Z,6.82
2023-03-17T13:13:23.280Z,7.45
2023-03-17T13:15:59.277Z,9.10
2023-03-17T13:19:07.738Z,6.63
2023-03-17T13:21:39.098Z,7.22
2023-03-17T13:24:36.069Z,6.88
2023-03-17T13:27:05.888Z,6.57
2023-03-17T13:29:47.149Z,6.90
2023-03-17T13:32:40.085Z,6.82
2023-03-17T13:35:22.978Z,6.93
2023-03-17T13:38:14.502Z,8.02
2023-03-17T13:40:52.557Z,7.15
2023-03-17T13:43:43.609Z,6.57
2023-03-17T13:46:22.435Z,7.65
2023-03-17T13:48:53.853Z,6.43
2023-03-17T13:51:24.966Z,6.38
2023-03-17T13:53:59.563Z,6.80
2023-03-17T13:56:48.904Z,9.55
2023-03-17T13:59:18.783Z,8.77
2023-03-17T14:01:51.111Z,7.68
2023-03-17T14:04:24.184Z,8.70
2023-03-17T14:06:54.673Z,9.75
2023-03-17T14:09:35.289Z,8.52
2023-03-17T14:12:07.634Z,7.95
2023-03-17T14:14:43.388Z,9.73
2023-03-17T14:17:17.872Z,9.35
2023-03-17T14:20:06.650Z,9.48
2023-03-17T14:22:43.822Z,8.80
2023-03-17T14:25:19.657Z,9.10
2023-03-17T14:27:52.980Z,8.65
2023-03-17T14:30:23.986Z,7.75
2023-03-17T14:32:57.621Z,7.05
2023-03-17T14:35:31.375Z,10.05
2023-03-17T14:38:01.081Z,8.77
2023-03-17T14:40:39.377Z,11.38
2023-03-17T14:43:07.321Z,10.20
2023-03-17T14:45:49.197Z,10.70
2023-03-17T14:48:22.275Z,7.85
2023-03-17T14:53:24.072Z,7.18
2023-03-17T14:55:53.923Z,8.07
2023-03-17T14:58:25.763Z,8.73
2023-03-17T15:00:59.466Z,10.05
2023-03-17T15:03:31.597Z,7.95
2023-03-17T15:06:25.534Z,9.32
2023-03-17T15:08:55.821Z,13.02
2023-03-17T15:11:27.687Z,15.48
2023-03-17T15:14:07.039Z,28.38
2023-03-17T15:16:37.309Z,14.77
2023-03-17T15:19:08.799Z,6.93
2023-03-17T15:21:41.517Z,8.93
2023-03-17T15:24:32.010Z,7.68
2023-03-17T15:27:04.142Z,8.30
2023-03-17T15:29:32.799Z,6.63
2023-03-17T15:32:08.079Z,5.82
2023-03-17T15:34:36.416Z,6.68
2023-03-17T15:37:07.828Z,5.68
2023-03-17T15:39:36.056Z,7.53
2023-03-17T15:42:07.001Z,8.52
2023-03-17T15:44:36.255Z,22.02
2023-03-17T15:47:06.958Z,10.48
2023-03-17T15:49:35.891Z,8.60
2023-03-17T15:52:12.690Z,12.95
2023-03-17T15:54:41.109Z,14.40
2023-03-17T15:57:10.682Z,15.75
2023-03-17T15:59:45.979Z,15.10
2023-03-17T16:02:28.846Z,13.27
2023-03-17T16:05:01.438Z,14.90
2023-03-17T16:07:31.422Z,13.48
2023-03-17T16:09:59.469Z,16.17
2023-03-17T16:12:28.398Z,12.32
2023-03-17T16:14:56.668Z,13.13
2023-03-17T16:17:29.980Z,13.48
2023-03-17T16:19:59.732Z,15.00
2023-03-17T16:22:41.773Z,15.73
2023-03-17T16:25:23.787Z,12.50
2023-03-17T16:27:53.178Z,10.38
2023-03-17T16:30:26.208Z,12.40
2023-03-17T16:35:26.154Z,15.40
2023-03-17T16:37:56.018Z,13.25
2023-03-17T16:40:29.302Z,13.82
2023-03-17T16:42:58.808Z,13.00
2023-03-17T16:45:32.670Z,14.10
2023-03-17T16:48:02.625Z,11.48
2023-03-17T16:50:35.287Z,12.77
2023-03-17T16:53:04.623Z,12.88
2023-03-17T16:55:32.942Z,14.68
2023-03-17T16:58:07.457Z,17.15
2023-03-17T17:00:36.793Z,18.98
2023-03-17T17:03:04.905Z,18.25
2023-03-17T17:05:36.161Z,12.63
2023-03-17T17:08:06.342Z,12.95
2023-03-17T17:10:35.159Z,19.77
2023-03-17T17:13:07.061Z,16.77
2023-03-17T17:15:36.691Z,17.17
2023-03-17T17:18:07.949Z,19.90
2023-03-17T17:20:39.312Z,15.30
2023-03-17T17:23:13.676Z,17.98
2023-03-17T17:25:42.065Z,18.58
2023-03-17T17:28:11.870Z,17.00
2023-03-17T17:30:42.910Z,15.75
2023-03-17T17:33:11.578Z,15.38
2023-03-17T17:35:42.102Z,15.00
2023-03-17T17:38:19.129Z,23.20
2023-03-17T17:40:47.473Z,24.33
2023-03-17T17:43:18.306Z,19.83
2023-03-17T17:45:49.208Z,24.15
2023-03-17T17:48:20.102Z,20.60
2023-03-17T17:50:50.971Z,17.27
2023-03-17T17:53:20.772Z,16.13
2023-03-17T17:55:52.616Z,19.67
2023-03-17T17:58:23.570Z,16.85
2023-03-17T18:00:54.076Z,13.77
2023-03-17T18:03:25.161Z,16.33
2023-03-17T18:05:54.466Z,16.33
2023-03-17T18:08:25.258Z,21.98
2023-03-17T18:10:55.921Z,20.25
2023-03-17T18:13:24.160Z,17.30
2023-03-17T18:15:55.157Z,15.40
2023-03-17T18:18:24.361Z,19.48
2023-03-17T18:20:53.860Z,29.30
2023-03-17T18:23:25.225Z,41.15
2023-03-17T18:25:59.732Z,35.22
2023-03-17T18:28:28.488Z,36.53
2023-03-17T18:31:06.156Z,32.78
2023-03-17T18:33:34.399Z,24.08
2023-03-17T18:36:05.999Z,28.50
2023-03-17T18:38:38.740Z,16.60
2023-03-17T18:41:11.043Z,19.50
2023-03-17T18:43:40.983Z,17.05
2023-03-17T18:46:09.869Z,22.20
2023-03-17T18:48:38.820Z,16.60
2023-03-17T18:51:07.341Z,20.40
2023-03-17T18:53:38.247Z,23.85
2023-03-17T18:56:09.108Z,17.13
2023-03-17T18:58:37.583Z,23.83
2023-03-17T19:01:06.281Z,24.60
2023-03-17T19:03:34.762Z,23.50
2023-03-17T19:06:09.968Z,24.27
2023-03-17T19:08:39.572Z,31.83
2023-03-17T19:11:10.854Z,30.33
2023-03-17T19:13:39.454Z,35.70
2023-03-17T19:16:09.050Z,27.67
2023-03-17T19:18:41.743Z,19.88
2023-03-17T19:21:10.980Z,22.08
2023-03-17T19:23:41.728Z,21.23
2023-03-17T19:26:12.256Z,21.42
2023-03-17T19:28:42.770Z,21.10
2023-03-17T19:31:12.354Z,15.75
2023-03-17T19:33:40.576Z,13.68
2023-03-17T19:36:12.741Z,14.00
2023-03-17T19:38:43.538Z,20.17
2023-03-17T19:41:12.010Z,16.20
2023-03-17T19:43:41.733Z,27.98
2023-03-17T19:46:10.915Z,20.80
2023-03-17T19:48:39.263Z,20.08
2023-03-17T19:51:08.101Z,19.75
2023-03-17T19:53:37.390Z,18.08
2023-03-17T19:56:08.123Z,17.38
2023-03-17T19:58:37.466Z,17.30
2023-03-17T20:01:06.929Z,15.63
2023-03-17T20:03:35.973Z,15.73
2023-03-17T20:06:06.728Z,16.80
2023-03-17T20:08:35.622Z,19.15
2023-03-17T20:11:05.485Z,20.75
2023-03-17T20:13:36.224Z,30.73
2023-03-17T20:16:05.131Z,31.17
2023-03-17T20:18:33.772Z,30.17
2023-03-17T20:21:05.771Z,24.67
2023-03-17T20:23:35.548Z,29.33
2023-03-17T20:26:03.968Z,23.92
2023-03-17T20:28:32.645Z,28.00
2023-03-17T20:31:05.334Z,24.27
2023-03-17T20:33:34.283Z,23.55
2023-03-17T20:36:03.159Z,30.33
2023-03-17T20:38:33.252Z,27.30
2023-03-17T20:41:12.270Z,24.98
2023-03-17T20:43:40.570Z,31.63
2023-03-17T20:46:14.927Z,33.05
2023-03-17T20:48:45.593Z,33.55
2023-03-17T20:51:16.404Z,32.63
2023-03-17T20:53:46.243Z,27.23
2023-03-17T20:56:16.492Z,32.17
2023-03-17T20:58:45.338Z,29.23
2023-03-17T21:01:16.493Z,29.08
2023-03-17T21:03:46.301Z,26.90
2023-03-17T21:06:15.254Z,26.65
2023-03-17T21:08:45.595Z,23.42
2023-03-17T21:11:17.254Z,39.42
2023-03-17T21:13:45.514Z,49.67
2023-03-17T21:16:18.239Z,36.60
2023-03-17T21:18:46.514Z,33.15
2023-03-17T21:21:15.110Z,22.75
2023-03-17T21:23:43.450Z,22.67
2023-03-17T21:26:12.236Z,26.00
2023-03-17T21:28:42.328Z,22.80
2023-03-17T21:31:12.359Z,23.40
2023-03-17T21:33:42.161Z,16.83
2023-03-17T21:36:11.381Z,17.67
2023-03-17T21:38:41.177Z,18.45
2023-03-17T21:41:23.959Z,21.95
2023-03-17T21:43:51.998Z,21.65
2023-03-17T21:46:20.380Z,19.02
2023-03-17T21:48:51.904Z,19.70
2023-03-17T21:51:20.138Z,18.52
2023-03-17T21:53:51.016Z,19.85
2023-03-17T21:56:20.408Z,20.20
2023-03-17T21:58:48.918Z,23.55
2023-03-17T22:01:17.969Z,20.50
2023-03-17T22:03:45.921Z,20.23
2023-03-17T22:06:18.848Z,17.73
2023-03-17T22:08:48.947Z,17.73
2023-03-17T22:11:18.822Z,15.10
2023-03-17T22:13:47.231Z,18.52
2023-03-17T22:16:17.496Z,18.48
2023-03-17T22:18:47.091Z,21.25
2023-03-17T22:21:17.861Z,21.88
2023-03-17T22:23:47.829Z,17.50
2023-03-17T22:26:17.177Z,18.00
2023-03-17T22:28:46.681Z,22.27
2023-03-17T22:31:16.791Z,19.58
2023-03-17T22:33:45.236Z,22.20
2023-03-17T22:36:13.613Z,22.02
2023-03-17T22:38:48.361Z,19.90
2023-03-17T22:41:18.641Z,22.00
2023-03-17T22:43:47.262Z,20.00
2023-03-17T22:46:16.218Z,20.83
2023-03-17T22:48:46.145Z,21.02
2023-03-17T22:51:16.965Z,19.77
2023-03-17T22:53:51.078Z,21.52
2023-03-17T22:56:21.718Z,23.10
2023-03-17T22:58:51.882Z,23.60
2023-03-17T23:01:23.856Z,23.50
2023-03-17T23:03:52.392Z,19.23
2023-03-17T23:06:21.035Z,20.30
2023-03-17T23:08:51.398Z,21.38
2023-03-17T23:11:23.141Z,19.35
2023-03-17T23:13:54.027Z,17.10
2023-03-17T23:16:23.055Z,17.15
2023-03-17T23:18:52.592Z,14.88
2023-03-17T23:21:25.053Z,16.33
2023-03-17T23:23:54.497Z,17.75
2023-03-17T23:26:22.782Z,14.55
2023-03-17T23:28:53.359Z,14.07
2023-03-17T23:31:24.805Z,18.42
2023-03-17T23:33:55.617Z,16.20
2023-03-17T23:36:23.575Z,12.55
2023-03-17T23:38:52.461Z,16.75
2023-03-17T23:41:24.038Z,14.02
2023-03-17T23:43:54.518Z,15.38
2023-03-17T23:46:22.574Z,14.68
2023-03-17T23:48:51.053Z,14.35
2023-03-17T23:51:19.370Z,12.75
2023-03-17T23:53:47.986Z,15.60
2023-03-17T23:56:20.809Z,13.07
2023-03-17T23:58:52.479Z,19.95
